Time;durP1;ratioP1;P1;durP2;ratioP2;P2;SDS_P1;SDS_P2;PMS_P1;PMS_P2;Temp;Humidity;BMP_temperature;BMP_pressure;BME280_temperature;BME280_humidity;BME280_pressure;Samples;Min_cycle;Max_cycle;Signal;HPM_P1;HPM_P2
2024/02/06 00:01:10;;;;;;;17.93;12.50;;;;;;;;;;5091760;28;20224;-81
2024/02/06 00:03:37;;;;;;;20.27;12.73;;;;;;;;;;5090881;28;20325;-82
2024/02/06 00:06:04;;;;;;;20.23;12.87;;;;;;;;;;5091495;28;20251;-82
2024/02/06 00:08:31;;;;;;;18.63;13.17;;;;;;;;;;5091318;28;20279;-83
2024/02/06 00:10:59;;;;;;;19.87;13.27;;;;;;;;;;5090739;28;20304;-82
2024/02/06 00:13:27;;;;;;;18.97;12.67;;;;;;;;;;5091479;28;20234;-82
2024/02/06 00:15:54;;;;;;;21.77;12.60;;;;;;;;;;5090860;28;20411;-83
2024/02/06 00:18:22;;;;;;;16.67;12.40;;;;;;;;;;5091087;28;20194;-82
2024/02/06 00:20:49;;;;;;;19.23;13.07;;;;;;;;;;5091122;28;20222;-82
2024/02/06 00:23:16;;;;;;;19.63;12.87;;;;;;;;;;5090950;28;20237;-82
2024/02/06 00:25:43;;;;;;;18.80;12.67;;;;;;;;;;5090581;28;20263;-83
2024/02/06 00:28:11;;;;;;;18.20;12.17;;;;;;;;;;5091355;28;20198;-82
2024/02/06 00:30:39;;;;;;;18.80;12.60;;;;;;;;;;5091356;28;20229;-82
2024/02/06 00:33:06;;;;;;;17.50;12.93;;;;;;;;;;5090969;28;20234;-82
2024/02/06 00:35:34;;;;;;;19.77;13.00;;;;;;;;;;5091381;28;20244;-82
2024/02/06 00:38:01;;;;;;;17.37;12.27;;;;;;;;;;5075592;28;20286;-82
2024/02/06 00:40:28;;;;;;;17.83;12.00;;;;;;;;;;5070262;28;20199;-82
2024/02/06 00:42:55;;;;;;;15.93;11.97;;;;;;;;;;5070612;28;20207;-84
2024/02/06 00:45:23;;;;;;;17.80;11.97;;;;;;;;;;5070663;28;20251;-82
2024/02/06 00:47:52;;;;;;;17.07;11.90;;;;;;;;;;5071137;28;20274;-82
2024/02/06 00:50:19;;;;;;;19.03;12.23;;;;;;;;;;5070658;28;20690;-82
2024/02/06 00:52:47;;;;;;;16.77;12.10;;;;;;;;;;5070425;28;20327;-82
2024/02/06 00:55:15;;;;;;;20.57;11.83;;;;;;;;;;5069902;28;20195;-83
2024/02/06 00:57:42;;;;;;;16.20;12.00;;;;;;;;;;5070827;28;20286;-83
2024/02/06 01:00:10;;;;;;;17.13;11.37;;;;;;;;;;5070366;28;20226;-82
2024/02/06 01:02:38;;;;;;;16.80;11.00;;;;;;;;;;5070515;28;20199;-81
2024/02/06 01:05:07;;;;;;;18.17;11.33;;;;;;;;;;5051283;28;20196;-82
2024/02/06 01:07:34;;;;;;;16.00;10.90;;;;;;;;;;5049748;28;20195;-80
2024/02/06 01:10:01;;;;;;;20.40;11.37;;;;;;;;;;5053066;28;20238;-80
2024/02/06 01:12:29;;;;;;;18.37;10.33;;;;;;;;;;5053248;28;20659;-81
2024/02/06 01:14:57;;;;;;;17.50;11.07;;;;;;;;;;5053466;28;20223;-82
2024/02/06 01:17:25;;;;;;;14.67;11.07;;;;;;;;;;5053858;28;20579;-82
2024/02/06 01:19:52;;;;;;;17.13;11.13;;;;;;;;;;5053522;28;20261;-82
2024/02/06 01:22:20;;;;;;;14.77;10.07;;;;;;;;;;5054130;28;20286;-82
2024/02/06 01:24:48;;;;;;;16.43;10.77;;;;;;;;;;5053031;28;20200;-82
2024/02/06 01:27:15;;;;;;;17.37;10.17;;;;;;;;;;5053454;28;20224;-81
2024/02/06 01:29:42;;;;;;;13.17;9.57;;;;;;;;;;5053156;28;20747;-82
2024/02/06 01:32:10;;;;;;;18.17;10.63;;;;;;;;;;5053609;28;20803;-82
2024/02/06 01:34:37;;;;;;;17.53;10.73;;;;;;;;;;5053139;28;20293;-82
2024/02/06 01:37:04;;;;;;;13.23;10.47;;;;;;;;;;5059927;28;20646;-81
2024/02/06 01:39:33;;;;;;;17.73;10.70;;;;;;;;;;5092895;28;20229;-82
2024/02/06 01:42:04;;;;;;;14.53;9.90;;;;;;;;;;5093587;28;20618;-81
2024/02/06 01:44:31;;;;;;;13.70;10.57;;;;;;;;;;5093865;28;20290;-82
2024/02/06 01:46:59;;;;;;;14.63;10.13;;;;;;;;;;5093619;28;20277;-82
2024/02/06 01:49:26;;;;;;;14.43;9.63;;;;;;;;;;5093383;28;20667;-82
2024/02/06 01:51:54;;;;;;;12.80;9.60;;;;;;;;;;5093543;28;20309;-83
2024/02/06 01:54:21;;;;;;;17.13;9.37;;;;;;;;;;5093064;28;20267;-82
2024/02/06 01:56:50;;;;;;;15.47;9.33;;;;;;;;;;5093115;28;20734;-82
2024/02/06 01:59:17;;;;;;;14.23;8.63;;;;;;;;;;5093498;28;20198;-83
2024/02/06 02:01:44;;;;;;;13.13;8.53;;;;;;;;;;5093248;28;20607;-83
2024/02/06 02:04:11;;;;;;;13.93;8.73;;;;;;;;;;5092601;28;20672;-82
2024/02/06 02:06:39;;;;;;;15.20;8.47;;;;;;;;;;5093228;28;20233;-82
2024/02/06 02:09:08;;;;;;;12.57;8.53;;;;;;;;;;5092986;28;20195;-82
2024/02/06 02:11:35;;;;;;;15.17;8.73;;;;;;;;;;5092997;28;20222;-82
2024/02/06 02:14:04;;;;;;;15.90;8.57;;;;;;;;;;5092878;28;20710;-81
2024/02/06 02:16:31;;;;;;;17.63;8.50;;;;;;;;;;5067846;28;20641;-81
2024/02/06 02:18:59;;;;;;;12.37;8.93;;;;;;;;;;5068520;28;20207;-81
2024/02/06 02:21:29;;;;;;;13.43;8.27;;;;;;;;;;5071552;28;20580;-82
2024/02/06 02:23:57;;;;;;;15.33;9.13;;;;;;;;;;5072542;28;20199;-81
2024/02/06 02:26:24;;;;;;;15.40;8.63;;;;;;;;;;5072449;28;20356;-82
2024/02/06 02:28:52;;;;;;;16.00;8.20;;;;;;;;;;5072846;28;20282;-80
2024/02/06 02:31:21;;;;;;;16.13;8.70;;;;;;;;;;5034757;28;20233;-82
2024/02/06 02:33:49;;;;;;;15.43;8.40;;;;;;;;;;5069803;28;20281;-81
2024/02/06 02:36:16;;;;;;;13.63;8.70;;;;;;;;;;5071962;28;20230;-82
2024/02/06 02:38:44;;;;;;;15.93;8.77;;;;;;;;;;5072549;28;20286;-81
2024/02/06 02:41:12;;;;;;;12.80;8.90;;;;;;;;;;5072173;28;20230;-82
2024/02/06 02:43:39;;;;;;;17.77;9.20;;;;;;;;;;5072450;28;20226;-82
2024/02/06 02:46:06;;;;;;;12.87;9.03;;;;;;;;;;5072041;28;20234;-83
2024/02/06 02:48:34;;;;;;;13.63;9.20;;;;;;;;;;5072217;28;20742;-81
2024/02/06 02:51:01;;;;;;;12.73;9.17;;;;;;;;;;5071603;28;20693;-82
2024/02/06 02:53:29;;;;;;;13.33;9.47;;;;;;;;;;5072389;28;20326;-82
2024/02/06 02:55:57;;;;;;;15.87;9.17;;;;;;;;;;5071834;28;20676;-82
2024/02/06 02:58:24;;;;;;;15.93;9.70;;;;;;;;;;5071531;28;20616;-81
2024/02/06 03:00:52;;;;;;;15.63;8.80;;;;;;;;;;5072018;28;20286;-82
2024/02/06 03:03:19;;;;;;;14.50;9.70;;;;;;;;;;5071567;28;20195;-82
2024/02/06 03:05:46;;;;;;;16.43;9.00;;;;;;;;;;5071823;28;20303;-81
2024/02/06 03:08:13;;;;;;;14.97;9.40;;;;;;;;;;5072043;28;20274;-82
2024/02/06 03:10:40;;;;;;;15.40;8.83;;;;;;;;;;5071600;28;20282;-82
2024/02/06 03:13:09;;;;;;;16.40;9.13;;;;;;;;;;5071360;28;20223;-82
2024/02/06 03:15:36;;;;;;;15.70;9.50;;;;;;;;;;5071540;28;20272;-81
2024/02/06 03:18:04;;;;;;;12.93;8.60;;;;;;;;;;5072150;28;20230;-82
2024/02/06 03:20:31;;;;;;;16.53;9.03;;;;;;;;;;5071197;28;20286;-82
2024/02/06 03:22:59;;;;;;;11.53;8.50;;;;;;;;;;5071710;28;20195;-81
2024/02/06 03:25:26;;;;;;;15.33;8.73;;;;;;;;;;5071325;28;20195;-82
2024/02/06 03:27:54;;;;;;;15.67;8.57;;;;;;;;;;5071442;28;20260;-82
2024/02/06 03:30:24;;;;;;;11.40;7.93;;;;;;;;;;5071540;28;20202;-82
2024/02/06 03:32:51;;;;;;;12.93;8.33;;;;;;;;;;5071112;28;20233;-81
2024/02/06 03:35:18;;;;;;;12.37;7.53;;;;;;;;;;5071163;28;20291;-79
2024/02/06 03:37:45;;;;;;;9.87;7.33;;;;;;;;;;5071161;28;20293;-82
2024/02/06 03:40:13;;;;;;;16.13;8.23;;;;;;;;;;5071047;28;20865;-83
2024/02/06 03:42:40;;;;;;;12.43;7.50;;;;;;;;;;5071333;28;20693;-81
2024/02/06 03:45:07;;;;;;;11.27;7.03;;;;;;;;;;5071144;28;20640;-82
2024/02/06 03:47:36;;;;;;;12.53;7.20;;;;;;;;;;5071562;28;20234;-81
2024/02/06 03:50:03;;;;;;;12.97;6.73;;;;;;;;;;5070829;28;20622;-82
2024/02/06 03:52:30;;;;;;;11.67;6.80;;;;;;;;;;5071081;28;20219;-82
2024/02/06 03:54:57;;;;;;;12.60;6.47;;;;;;;;;;5070674;28;20735;-81
2024/02/06 03:57:25;;;;;;;9.27;6.30;;;;;;;;;;5070672;28;20278;-82
2024/02/06 03:59:52;;;;;;;14.77;6.77;;;;;;;;;;5071407;28;20222;-81
2024/02/06 04:02:21;;;;;;;12.33;6.37;;;;;;;;;;5071093;28;20234;-82
2024/02/06 04:04:49;;;;;;;13.23;5.87;;;;;;;;;;5070875;28;20558;-82
2024/02/06 04:07:17;;;;;;;12.13;6.63;;;;;;;;;;5070846;28;20252;-82
2024/02/06 04:09:44;;;;;;;14.93;6.33;;;;;;;;;;5070778;28;20282;-82
2024/02/06 04:12:11;;;;;;;12.57;6.40;;;;;;;;;;5071032;28;20250;-83
2024/02/06 04:14:40;;;;;;;11.73;6.30;;;;;;;;;;5070607;28;20646;-82
2024/02/06 04:17:07;;;;;;;8.97;6.23;;;;;;;;;;5071007;28;20664;-82
2024/02/06 04:19:35;;;;;;;11.63;6.50;;;;;;;;;;5071216;28;20281;-81
2024/02/06 04:22:03;;;;;;;13.07;6.07;;;;;;;;;;5070969;28;20293;-82
2024/02/06 04:24:31;;;;;;;10.43;5.80;;;;;;;;;;5070786;28;20230;-81
2024/02/06 04:26:58;;;;;;;10.40;6.47;;;;;;;;;;5070713;28;20342;-82
2024/02/06 04:29:25;;;;;;;12.17;6.80;;;;;;;;;;5071134;28;20633;-82
2024/02/06 04:31:52;;;;;;;10.37;6.63;;;;;;;;;;5070954;28;20278;-81
2024/02/06 04:34:19;;;;;;;13.47;6.17;;;;;;;;;;5070270;28;20261;-81
2024/02/06 04:36:47;;;;;;;12.13;6.77;;;;;;;;;;5070579;28;20226;-82
2024/02/06 04:39:15;;;;;;;14.63;6.70;;;;;;;;;;5070469;28;20223;-82
2024/02/06 04:41:43;;;;;;;11.50;6.43;;;;;;;;;;5070613;28;20199;-81
2024/02/06 04:44:10;;;;;;;12.40;6.10;;;;;;;;;;5073734;28;20290;-81
2024/02/06 04:46:37;;;;;;;13.27;6.47;;;;;;;;;;5074136;28;20675;-81
2024/02/06 04:49:04;;;;;;;9.50;6.03;;;;;;;;;;5074721;28;20351;-82
2024/02/06 04:51:33;;;;;;;13.23;5.90;;;;;;;;;;5074064;28;20237;-81
2024/02/06 04:54:00;;;;;;;12.93;5.70;;;;;;;;;;5074346;28;20223;-81
2024/02/06 04:56:29;;;;;;;10.93;5.50;;;;;;;;;;5074263;28;20279;-81
2024/02/06 04:58:56;;;;;;;13.50;5.37;;;;;;;;;;5073758;28;20298;-81
2024/02/06 05:01:23;;;;;;;12.67;5.03;;;;;;;;;;5073923;28;20291;-82
2024/02/06 05:03:51;;;;;;;13.17;5.00;;;;;;;;;;5074227;28;20231;-82
2024/02/06 05:06:19;;;;;;;11.33;4.60;;;;;;;;;;5074390;28;20199;-82
2024/02/06 05:08:46;;;;;;;10.63;4.60;;;;;;;;;;5074112;28;20290;-81
2024/02/06 05:11:13;;;;;;;8.73;4.53;;;;;;;;;;5073951;28;20675;-81
2024/02/06 05:13:42;;;;;;;14.20;4.97;;;;;;;;;;5074199;28;20668;-81
2024/02/06 05:16:10;;;;;;;13.17;4.60;;;;;;;;;;5073713;28;20603;-81
2024/02/06 05:18:37;;;;;;;10.17;4.90;;;;;;;;;;5073920;28;21017;-81
2024/02/06 05:21:05;;;;;;;14.40;4.87;;;;;;;;;;5073697;28;20268;-81
2024/02/06 05:23:32;;;;;;;11.37;4.87;;;;;;;;;;5074142;28;20282;-81
2024/02/06 05:25:59;;;;;;;11.77;4.70;;;;;;;;;;5073408;28;20262;-81
2024/02/06 05:28:26;;;;;;;9.83;4.13;;;;;;;;;;5073555;28;20234;-81
2024/02/06 05:30:56;;;;;;;14.40;4.93;;;;;;;;;;5073766;28;20226;-81
2024/02/06 05:33:23;;;;;;;10.30;4.60;;;;;;;;;;5073217;28;20229;-81
2024/02/06 05:35:50;;;;;;;12.83;5.27;;;;;;;;;;5073434;28;20223;-81
2024/02/06 05:38:18;;;;;;;8.50;4.77;;;;;;;;;;5073473;28;20211;-81
2024/02/06 05:40:45;;;;;;;12.10;4.87;;;;;;;;;;5073191;28;20687;-82
2024/02/06 05:43:13;;;;;;;9.63;5.17;;;;;;;;;;5073451;28;20641;-81
2024/02/06 05:45:40;;;;;;;13.60;5.40;;;;;;;;;;5073389;28;20687;-80
2024/02/06 05:48:09;;;;;;;10.67;4.97;;;;;;;;;;5073358;28;20218;-81
2024/02/06 05:50:36;;;;;;;12.97;5.47;;;;;;;;;;5073262;28;20202;-81
2024/02/06 05:53:03;;;;;;;11.13;5.10;;;;;;;;;;5073174;28;20262;-81
2024/02/06 05:55:30;;;;;;;14.10;5.07;;;;;;;;;;5071831;28;20227;-81
2024/02/06 05:57:58;;;;;;;9.90;5.27;;;;;;;;;;5073420;28;20207;-81
2024/02/06 06:00:26;;;;;;;12.13;5.17;;;;;;;;;;5073117;28;20237;-82
2024/02/06 06:02:54;;;;;;;11.17;5.43;;;;;;;;;;5073265;28;20199;-81
2024/02/06 06:05:23;;;;;;;12.47;5.10;;;;;;;;;;5072990;28;20221;-81
2024/02/06 06:07:51;;;;;;;12.33;5.10;;;;;;;;;;5073075;28;20195;-81
2024/02/06 06:10:18;;;;;;;10.03;4.80;;;;;;;;;;5072737;28;20285;-80
2024/02/06 06:12:45;;;;;;;12.50;4.77;;;;;;;;;;5072930;28;20655;-80
2024/02/06 06:15:13;;;;;;;12.53;5.33;;;;;;;;;;5072589;28;20294;-80
2024/02/06 06:17:40;;;;;;;9.07;4.90;;;;;;;;;;5072700;28;20207;-80
2024/02/06 06:20:08;;;;;;;9.87;5.37;;;;;;;;;;5072919;28;20282;-80
2024/02/06 06:22:36;;;;;;;11.03;5.10;;;;;;;;;;5072210;28;20222;-79
2024/02/06 06:25:03;;;;;;;10.27;5.30;;;;;;;;;;5072490;28;20234;-79
2024/02/06 06:27:31;;;;;;;11.43;5.27;;;;;;;;;;5072397;28;20325;-81
2024/02/06 06:29:58;;;;;;;13.33;5.33;;;;;;;;;;5072272;28;20199;-82
2024/02/06 06:32:25;;;;;;;17.53;5.20;;;;;;;;;;5072714;28;20199;-81
2024/02/06 06:34:52;;;;;;;14.20;5.37;;;;;;;;;;5072262;28;20287;-80
2024/02/06 06:37:19;;;;;;;14.20;5.80;;;;;;;;;;5072313;28;20279;-82
2024/02/06 06:39:49;;;;;;;12.83;5.27;;;;;;;;;;5072291;28;20230;-82
2024/02/06 06:42:16;;;;;;;10.53;5.27;;;;;;;;;;5072621;28;20282;-81
2024/02/06 06:44:43;;;;;;;15.80;5.53;;;;;;;;;;5070364;28;20230;-84
2024/02/06 06:47:12;;;;;;;13.00;5.10;;;;;;;;;;5069797;28;20226;-81
2024/02/06 06:49:39;;;;;;;14.00;4.67;;;;;;;;;;5071471;28;20199;-81
2024/02/06 06:52:07;;;;;;;13.87;5.43;;;;;;;;;;5071875;28;20203;-80
2024/02/06 06:54:34;;;;;;;13.80;5.30;;;;;;;;;;5071889;28;20235;-80
2024/02/06 06:57:03;;;;;;;13.27;5.47;;;;;;;;;;5071228;28;20205;-80
2024/02/06 06:59:31;;;;;;;14.67;5.33;;;;;;;;;;5072554;28;20278;-79
2024/02/06 07:01:59;;;;;;;11.20;4.93;;;;;;;;;;5067104;28;20204;-80
2024/02/06 07:04:26;;;;;;;12.77;5.20;;;;;;;;;;5038426;28;20200;-82
2024/02/06 07:06:53;;;;;;;14.00;4.87;;;;;;;;;;5057498;28;20281;-81
2024/02/06 07:09:21;;;;;;;11.80;5.07;;;;;;;;;;5071776;28;20203;-81
2024/02/06 07:11:48;;;;;;;11.40;5.30;;;;;;;;;;5070913;28;20226;-80
2024/02/06 07:14:17;;;;;;;10.60;5.13;;;;;;;;;;5071979;28;20237;-80
2024/02/06 07:16:44;;;;;;;12.40;4.97;;;;;;;;;;5071575;28;20289;-81
2024/02/06 07:19:11;;;;;;;12.07;4.37;;;;;;;;;;5071561;28;20203;-81
2024/02/06 07:21:39;;;;;;;14.90;5.90;;;;;;;;;;5068646;28;20286;-81
2024/02/06 07:24:09;;;;;;;14.73;5.33;;;;;;;;;;5071128;28;20297;-79
2024/02/06 07:26:36;;;;;;;11.70;5.43;;;;;;;;;;5070759;28;20848;-81
2024/02/06 07:29:03;;;;;;;11.63;5.60;;;;;;;;;;5071151;28;20260;-81
2024/02/06 07:31:32;;;;;;;17.23;5.60;;;;;;;;;;5071170;28;20195;-80
2024/02/06 07:33:59;;;;;;;12.33;5.27;;;;;;;;;;5070844;28;20262;-81
2024/02/06 07:36:29;;;;;;;10.50;4.70;;;;;;;;;;5069930;28;20226;-81
2024/02/06 07:38:56;;;;;;;10.93;5.27;;;;;;;;;;5071176;28;20204;-81
2024/02/06 07:41:23;;;;;;;12.17;4.80;;;;;;;;;;5070723;28;20642;-81
2024/02/06 07:43:50;;;;;;;14.27;4.87;;;;;;;;;;5069228;28;20249;-80
2024/02/06 07:46:18;;;;;;;12.70;4.90;;;;;;;;;;5071166;28;20223;-80
2024/02/06 07:48:47;;;;;;;13.27;4.77;;;;;;;;;;5071502;28;20191;-80
2024/02/06 07:51:14;;;;;;;14.90;6.30;;;;;;;;;;5070922;28;20237;-81
2024/02/06 07:53:42;;;;;;;11.23;5.27;;;;;;;;;;5070705;28;20326;-81
2024/02/06 07:56:10;;;;;;;14.67;5.97;;;;;;;;;;5070662;28;20230;-80
2024/02/06 07:58:37;;;;;;;8.50;5.40;;;;;;;;;;5069824;28;20210;-80
2024/02/06 08:01:06;;;;;;;14.97;5.60;;;;;;;;;;5070313;28;20201;-81
2024/02/06 08:03:33;;;;;;;14.93;5.23;;;;;;;;;;5070977;28;20219;-81
2024/02/06 08:06:02;;;;;;;13.50;5.40;;;;;;;;;;5070736;28;20233;-80
2024/02/06 08:08:29;;;;;;;11.77;4.90;;;;;;;;;;5070475;28;20647;-81
2024/02/06 08:10:56;;;;;;;9.67;5.17;;;;;;;;;;5070416;28;20294;-80
2024/02/06 08:13:23;;;;;;;13.00;5.20;;;;;;;;;;5070584;28;20322;-80
2024/02/06 08:15:51;;;;;;;14.47;4.67;;;;;;;;;;5070733;28;20637;-79
2024/02/06 08:18:18;;;;;;;12.53;4.37;;;;;;;;;;5070973;28;20280;-80
2024/02/06 08:20:45;;;;;;;12.30;4.10;;;;;;;;;;5062410;28;20664;-81
2024/02/06 08:23:14;;;;;;;15.90;4.80;;;;;;;;;;5062816;28;20286;-81
2024/02/06 08:25:41;;;;;;;11.67;4.03;;;;;;;;;;5054550;28;20308;-80
2024/02/06 08:28:08;;;;;;;11.93;3.97;;;;;;;;;;5054795;28;20196;-81
2024/02/06 08:30:36;;;;;;;9.37;4.07;;;;;;;;;;5054566;28;20283;-81
2024/02/06 08:33:03;;;;;;;12.23;4.17;;;;;;;;;;5054606;28;20195;-80
2024/02/06 08:35:30;;;;;;;10.50;4.20;;;;;;;;;;5054748;28;20235;-81
2024/02/06 08:37:57;;;;;;;11.40;3.80;;;;;;;;;;5069005;28;20199;-81
2024/02/06 08:40:26;;;;;;;11.13;4.27;;;;;;;;;;5074410;28;20202;-80
2024/02/06 08:42:54;;;;;;;11.47;3.47;;;;;;;;;;5071937;28;20252;-81
2024/02/06 08:45:21;;;;;;;7.33;3.13;;;;;;;;;;5070589;28;20435;-80
2024/02/06 08:47:48;;;;;;;6.30;3.13;;;;;;;;;;5071018;28;20199;-80
2024/02/06 08:50:15;;;;;;;12.00;3.57;;;;;;;;;;5066331;28;20269;-81
2024/02/06 08:52:43;;;;;;;10.97;3.90;;;;;;;;;;5054041;28;20938;-81
2024/02/06 08:55:10;;;;;;;12.50;3.23;;;;;;;;;;5054043;28;20289;-81
2024/02/06 08:57:39;;;;;;;10.73;3.57;;;;;;;;;;5054635;28;20211;-82
2024/02/06 09:00:11;;;;;;;10.97;3.60;;;;;;;;;;5054204;28;20196;-82
2024/02/06 09:02:38;;;;;;;6.30;2.90;;;;;;;;;;5053918;28;20637;-80
2024/02/06 09:05:06;;;;;;;12.83;3.33;;;;;;;;;;5054368;28;20227;-82
2024/02/06 09:07:33;;;;;;;15.20;3.30;;;;;;;;;;5053241;28;20241;-81
2024/02/06 09:10:00;;;;;;;9.57;3.30;;;;;;;;;;5053302;28;20278;-82
2024/02/06 09:12:28;;;;;;;14.37;3.47;;;;;;;;;;5054441;28;20192;-81
2024/02/06 09:15:00;;;;;;;9.83;3.10;;;;;;;;;;5053778;28;20258;-81
2024/02/06 09:17:27;;;;;;;15.03;3.53;;;;;;;;;;5053733;28;20231;-81
2024/02/06 09:19:54;;;;;;;10.57;3.20;;;;;;;;;;5054010;28;20325;-81
2024/02/06 09:22:22;;;;;;;11.20;3.20;;;;;;;;;;5053924;28;20639;-82
2024/02/06 09:24:49;;;;;;;18.47;3.90;;;;;;;;;;5053649;28;20196;-82
2024/02/06 09:27:17;;;;;;;8.63;3.20;;;;;;;;;;5053871;28;20322;-82
2024/02/06 09:29:44;;;;;;;11.23;3.10;;;;;;;;;;5053038;28;20635;-81
2024/02/06 09:32:13;;;;;;;11.60;3.27;;;;;;;;;;5053607;28;20611;-81
2024/02/06 09:34:40;;;;;;;10.03;3.07;;;;;;;;;;5053421;28;20266;-82
2024/02/06 09:37:07;;;;;;;9.70;2.80;;;;;;;;;;5064358;28;20712;-81
2024/02/06 09:39:34;;;;;;;9.10;2.80;;;;;;;;;;5093782;28;20293;-81
2024/02/06 09:42:02;;;;;;;8.70;2.87;;;;;;;;;;5075604;28;20659;-81
2024/02/06 09:44:30;;;;;;;10.57;3.03;;;;;;;;;;5053218;28;20200;-81
2024/02/06 09:46:58;;;;;;;10.43;3.30;;;;;;;;;;5054029;28;20639;-81
2024/02/06 09:49:28;;;;;;;10.53;3.27;;;;;;;;;;5053491;28;20211;-81
2024/02/06 09:51:56;;;;;;;10.57;3.17;;;;;;;;;;5052790;28;20291;-81
2024/02/06 09:54:25;;;;;;;9.40;3.00;;;;;;;;;;5052868;28;20227;-81
2024/02/06 09:56:53;;;;;;;10.97;3.10;;;;;;;;;;5052948;28;20223;-81
2024/02/06 09:59:21;;;;;;;8.47;3.27;;;;;;;;;;5052767;28;20753;-80
2024/02/06 10:01:49;;;;;;;10.07;3.20;;;;;;;;;;5053415;28;20568;-80
2024/02/06 10:04:17;;;;;;;13.27;3.83;;;;;;;;;;5052893;28;20283;-82
2024/02/06 10:06:48;;;;;;;17.20;3.90;;;;;;;;;;5052631;28;20565;-80
2024/02/06 10:09:17;;;;;;;13.13;3.80;;;;;;;;;;5052242;28;20735;-82
2024/02/06 10:11:44;;;;;;;11.07;3.90;;;;;;;;;;5052777;28;20196;-82
2024/02/06 10:14:13;;;;;;;11.60;4.23;;;;;;;;;;5052809;28;20220;-81
2024/02/06 10:16:41;;;;;;;14.47;3.80;;;;;;;;;;5052741;28;20283;-80
2024/02/06 10:19:09;;;;;;;9.67;3.13;;;;;;;;;;5052675;28;20676;-81
2024/02/06 10:21:36;;;;;;;10.90;3.10;;;;;;;;;;5052335;28;20230;-81
2024/02/06 10:24:06;;;;;;;8.97;3.40;;;;;;;;;;5052199;28;20294;-81
2024/02/06 10:26:33;;;;;;;10.97;3.67;;;;;;;;;;5052379;28;20326;-81
2024/02/06 10:29:07;;;;;;;9.47;3.60;;;;;;;;;;5052638;28;20196;-80
2024/02/06 10:31:34;;;;;;;9.20;3.40;;;;;;;;;;5052754;28;20204;-81
2024/02/06 10:34:11;;;;;;;8.07;3.53;;;;;;;;;;5051930;28;20687;-81
2024/02/06 10:36:39;;;;;;;12.53;3.90;;;;;;;;;;5055212;28;20656;-81
2024/02/06 10:39:09;;;;;;;9.93;3.33;;;;;;;;;;5084577;28;20218;-82
2024/02/06 10:41:36;;;;;;;10.77;2.83;;;;;;;;;;5058938;28;20294;-81
2024/02/06 10:44:11;;;;;;;9.50;3.50;;;;;;;;;;5059061;28;20245;-81
2024/02/06 10:46:39;;;;;;;8.93;2.97;;;;;;;;;;5060598;28;20207;-81
2024/02/06 10:49:06;;;;;;;8.43;3.13;;;;;;;;;;5051615;28;20191;-80
2024/02/06 10:51:34;;;;;;;10.57;2.97;;;;;;;;;;5052285;28;20290;-81
2024/02/06 10:54:01;;;;;;;15.40;3.73;;;;;;;;;;5051926;28;20204;-81
2024/02/06 10:56:31;;;;;;;9.27;3.27;;;;;;;;;;5051909;28;20279;-80
2024/02/06 10:59:00;;;;;;;12.87;3.63;;;;;;;;;;5052126;28;20257;-81
2024/02/06 11:01:31;;;;;;;11.33;3.87;;;;;;;;;;5051925;28;20196;-81
2024/02/06 11:04:04;;;;;;;10.53;3.73;;;;;;;;;;5051199;28;20303;-80
2024/02/06 11:06:36;;;;;;;11.43;3.43;;;;;;;;;;5051325;28;20318;-81
2024/02/06 11:09:05;;;;;;;10.37;3.07;;;;;;;;;;5051656;28;20282;-82
2024/02/06 11:11:36;;;;;;;13.70;3.40;;;;;;;;;;5052214;28;20204;-81
2024/02/06 11:14:03;;;;;;;12.90;3.50;;;;;;;;;;5051539;28;20203;-81
2024/02/06 11:16:34;;;;;;;9.43;3.50;;;;;;;;;;5051700;28;20223;-82
2024/02/06 11:19:07;;;;;;;11.80;3.33;;;;;;;;;;5051349;28;20241;-81
2024/02/06 11:21:44;;;;;;;7.67;3.13;;;;;;;;;;5051739;28;20223;-81
2024/02/06 11:24:11;;;;;;;10.43;2.83;;;;;;;;;;5051903;28;20196;-81
2024/02/06 11:26:40;;;;;;;10.70;3.20;;;;;;;;;;5051248;28;20296;-81
2024/02/06 11:29:08;;;;;;;12.20;3.30;;;;;;;;;;5051559;28;20293;-81
2024/02/06 11:31:36;;;;;;;10.40;3.13;;;;;;;;;;5051612;28;20631;-81
2024/02/06 11:34:13;;;;;;;9.23;3.70;;;;;;;;;;5050855;28;20206;-80
2024/02/06 11:36:41;;;;;;;12.23;3.50;;;;;;;;;;5055196;28;20289;-81
2024/02/06 11:39:09;;;;;;;11.03;3.70;;;;;;;;;;5091120;28;20247;-79
2024/02/06 11:41:37;;;;;;;10.60;3.37;;;;;;;;;;5074407;28;20192;-79
2024/02/06 11:44:10;;;;;;;11.13;2.80;;;;;;;;;;5058731;28;20287;-78
2024/02/06 11:46:44;;;;;;;14.43;3.47;;;;;;;;;;5061396;28;20198;-78
2024/02/06 11:49:11;;;;;;;8.87;3.20;;;;;;;;;;5054895;28;20210;-77
2024/02/06 11:51:39;;;;;;;10.27;3.30;;;;;;;;;;5059135;28;20278;-77
2024/02/06 11:54:13;;;;;;;8.50;3.17;;;;;;;;;;5061084;28;20282;-79
2024/02/06 11:56:40;;;;;;;13.30;3.67;;;;;;;;;;5061162;28;20627;-78
2024/02/06 11:59:07;;;;;;;13.13;3.77;;;;;;;;;;5059247;28;20619;-78
2024/02/06 12:01:36;;;;;;;10.87;2.97;;;;;;;;;;5059635;28;20277;-76
2024/02/06 12:04:04;;;;;;;11.00;3.57;;;;;;;;;;5060696;28;20207;-76
2024/02/06 12:06:31;;;;;;;13.87;3.27;;;;;;;;;;5059337;28;20682;-77
2024/02/06 12:09:03;;;;;;;10.87;3.37;;;;;;;;;;5059287;28;20546;-78
2024/02/06 12:11:31;;;;;;;10.27;3.50;;;;;;;;;;5059966;28;20345;-77
2024/02/06 12:13:58;;;;;;;13.73;2.80;;;;;;;;;;5059205;28;20199;-77
2024/02/06 12:16:26;;;;;;;9.77;2.87;;;;;;;;;;5060381;28;20219;-77
2024/02/06 12:18:54;;;;;;;13.50;3.37;;;;;;;;;;5059571;28;20234;-77
2024/02/06 12:21:22;;;;;;;13.97;2.67;;;;;;;;;;5058501;28;20223;-78
2024/02/06 12:23:49;;;;;;;11.87;3.30;;;;;;;;;;5062930;28;20227;-77
2024/02/06 12:26:23;;;;;;;10.70;3.07;;;;;;;;;;5064859;28;20325;-76
2024/02/06 12:29:00;;;;;;;12.60;3.03;;;;;;;;;;5059756;28;20265;-78
2024/02/06 12:31:28;;;;;;;10.03;3.60;;;;;;;;;;5066618;28;20278;-78
2024/02/06 12:33:56;;;;;;;9.10;2.97;;;;;;;;;;5060392;28;20196;-79
2024/02/06 12:36:23;;;;;;;11.77;3.53;;;;;;;;;;5054144;28;20258;-78
2024/02/06 12:38:52;;;;;;;10.67;3.40;;;;;;;;;;5070575;28;20230;-77
2024/02/06 12:41:19;;;;;;;11.17;3.10;;;;;;;;;;5070942;28;20307;-78
2024/02/06 12:43:46;;;;;;;10.10;3.63;;;;;;;;;;5070417;28;20219;-77
2024/02/06 12:46:13;;;;;;;11.73;5.00;;;;;;;;;;5070302;28;20225;-78
2024/02/06 12:48:40;;;;;;;14.03;3.37;;;;;;;;;;5070354;28;20602;-79
2024/02/06 12:51:09;;;;;;;10.27;3.43;;;;;;;;;;5062294;28;20290;-77
2024/02/06 12:53:37;;;;;;;9.13;3.10;;;;;;;;;;5070458;28;20652;-77
2024/02/06 12:56:04;;;;;;;10.43;3.37;;;;;;;;;;5070374;28;20265;-77
2024/02/06 12:58:32;;;;;;;12.57;3.30;;;;;;;;;;5070418;28;20246;-77
2024/02/06 13:01:00;;;;;;;10.57;3.10;;;;;;;;;;5070189;28;20195;-78
2024/02/06 13:03:27;;;;;;;11.20;3.37;;;;;;;;;;5070447;28;20230;-78
2024/02/06 13:05:55;;;;;;;13.30;3.57;;;;;;;;;;5073423;28;20202;-77
2024/02/06 13:08:24;;;;;;;13.37;3.50;;;;;;;;;;5064239;28;20206;-78
2024/02/06 13:10:51;;;;;;;9.93;3.20;;;;;;;;;;5057397;28;20231;-78
2024/02/06 13:13:19;;;;;;;11.13;3.80;;;;;;;;;;5053731;28;20253;-78
2024/02/06 13:15:46;;;;;;;19.27;3.23;;;;;;;;;;5057344;28;20742;-78
2024/02/06 13:18:16;;;;;;;14.00;3.77;;;;;;;;;;5069094;28;20277;-77
2024/02/06 13:20:44;;;;;;;14.20;3.70;;;;;;;;;;5073405;28;20622;-78
2024/02/06 13:23:12;;;;;;;16.00;3.80;;;;;;;;;;5073484;28;20245;-77
2024/02/06 13:25:41;;;;;;;12.47;3.73;;;;;;;;;;5073832;28;20272;-77
2024/02/06 13:28:08;;;;;;;8.77;3.37;;;;;;;;;;5073613;28;20286;-77
2024/02/06 13:30:35;;;;;;;11.07;3.40;;;;;;;;;;5073624;28;20226;-78
2024/02/06 13:33:03;;;;;;;9.73;3.60;;;;;;;;;;5073466;28;20290;-78
2024/02/06 13:35:30;;;;;;;13.90;3.20;;;;;;;;;;5071241;28;20223;-78
2024/02/06 13:38:00;;;;;;;14.33;3.57;;;;;;;;;;5072652;28;20293;-78
2024/02/06 13:40:27;;;;;;;11.07;3.60;;;;;;;;;;5073407;28;20203;-78
2024/02/06 13:42:55;;;;;;;10.83;3.50;;;;;;;;;;5074059;28;20203;-77
2024/02/06 13:45:23;;;;;;;14.60;3.83;;;;;;;;;;5073180;28;20861;-78
2024/02/06 13:47:50;;;;;;;8.43;3.30;;;;;;;;;;5072947;28;20191;-78
2024/02/06 13:50:20;;;;;;;13.00;4.23;;;;;;;;;;5064289;28;20204;-78
2024/02/06 13:52:47;;;;;;;11.63;4.20;;;;;;;;;;5062047;28;20215;-78
2024/02/06 13:55:14;;;;;;;12.53;4.20;;;;;;;;;;5052896;28;20795;-77
2024/02/06 13:57:42;;;;;;;14.37;4.50;;;;;;;;;;5052656;28;20196;-77
2024/02/06 14:00:12;;;;;;;17.33;4.63;;;;;;;;;;5052735;28;20228;-78
2024/02/06 14:02:40;;;;;;;18.00;4.30;;;;;;;;;;5052636;28;20196;-78
2024/02/06 14:05:07;;;;;;;18.53;5.17;;;;;;;;;;5045242;28;20200;-78
2024/02/06 14:07:34;;;;;;;21.37;8.70;;;;;;;;;;5052743;28;20671;-79
2024/02/06 14:10:02;;;;;;;19.23;9.40;;;;;;;;;;5053061;28;20286;-78
2024/02/06 14:12:29;;;;;;;17.73;9.73;;;;;;;;;;5052435;28;20274;-78
2024/02/06 14:14:56;;;;;;;19.73;11.27;;;;;;;;;;5052788;28;20287;-78
2024/02/06 14:17:25;;;;;;;22.20;11.20;;;;;;;;;;5051901;28;20282;-79
2024/02/06 14:19:52;;;;;;;16.03;8.37;;;;;;;;;;5052544;28;20242;-78
2024/02/06 14:22:19;;;;;;;15.60;7.83;;;;;;;;;;5052683;28;20196;-78
2024/02/06 14:24:46;;;;;;;19.20;7.27;;;;;;;;;;5052650;28;20223;-78
2024/02/06 14:27:13;;;;;;;12.97;6.23;;;;;;;;;;5052685;28;20271;-79
2024/02/06 14:29:40;;;;;;;14.97;6.33;;;;;;;;;;5052468;28;20200;-78
2024/02/06 14:32:08;;;;;;;16.63;5.83;;;;;;;;;;5052624;28;20282;-79
2024/02/06 14:34:36;;;;;;;28.17;10.70;;;;;;;;;;5052629;28;20196;-78